Time;durP1;ratioP1;P1;durP2;ratioP2;P2;SDS_P1;SDS_P2;PMS_P1;PMS_P2;Temp;Humidity;BMP_temperature;BMP_pressure;BME280_temperature;BME280_humidity;BME280_pressure;Samples;Min_cycle;Max_cycle;Signal;HPM_P1;HPM_P2
2023/10/11 00:01:47;;;;;;;9.27;6.77;;;14.00;99.90;;;;;;5012618;28;20464;-67
2023/10/11 00:04:34;;;;;;;9.47;7.47;;;14.00;99.90;;;;;;5013581;28;20439;-67
2023/10/11 00:06:59;;;;;;;10.33;6.57;;;14.00;99.90;;;;;;5011009;28;20670;-67
2023/10/11 00:09:34;;;;;;;14.53;7.27;;;14.00;99.90;;;;;;5012093;28;20437;-67
2023/10/11 00:12:04;;;;;;;10.80;7.17;;;14.00;99.90;;;;;;5012126;28;20210;-65
2023/10/11 00:14:31;;;;;;;10.10;7.03;;;14.00;99.90;;;;;;5012645;28;20441;-67
2023/10/11 00:16:57;;;;;;;11.60;6.97;;;14.00;99.90;;;;;;5014244;28;20962;-67
2023/10/11 00:19:28;;;;;;;10.30;6.67;;;13.90;99.90;;;;;;5013429;28;20475;-68
2023/10/11 00:21:54;;;;;;;11.70;7.37;;;13.90;99.90;;;;;;5012603;28;20453;-67
2023/10/11 00:24:23;;;;;;;11.20;6.10;;;13.80;99.90;;;;;;5016548;28;20433;-67
2023/10/11 00:26:49;;;;;;;10.63;7.00;;;13.80;99.90;;;;;;5007958;28;20175;-67
2023/10/11 00:29:15;;;;;;;10.40;6.90;;;13.80;99.90;;;;;;5011831;28;20977;-67
2023/10/11 00:31:41;;;;;;;10.67;6.90;;;13.80;99.90;;;;;;5011925;28;20453;-68
2023/10/11 00:34:10;;;;;;;12.93;6.27;;;13.80;99.90;;;;;;5010035;28;20441;-67
2023/10/11 00:36:36;;;;;;;13.03;7.47;;;13.80;99.90;;;;;;5010413;28;20587;-67
2023/10/11 00:39:05;;;;;;;10.83;7.33;;;13.80;99.90;;;;;;5003892;28;20458;-67
2023/10/11 00:41:31;;;;;;;15.17;7.70;;;13.80;99.90;;;;;;5010202;28;20199;-67
2023/10/11 00:43:56;;;;;;;12.83;7.80;;;13.80;99.90;;;;;;5010132;28;20826;-69
2023/10/11 00:46:50;;;;;;;10.23;7.13;;;13.80;99.90;;;;;;5014152;28;20262;-70
2023/10/11 00:49:16;;;;;;;10.90;6.63;;;13.80;99.90;;;;;;5010564;28;20521;-67
2023/10/11 00:51:44;;;;;;;11.13;6.13;;;13.80;99.90;;;;;;5011607;28;20551;-67
2023/10/11 00:54:13;;;;;;;11.03;7.50;;;13.80;99.90;;;;;;5008259;28;20560;-70
2023/10/11 00:56:43;;;;;;;13.77;7.03;;;13.80;99.90;;;;;;5009623;28;20442;-68
2023/10/11 00:59:13;;;;;;;15.30;7.43;;;13.80;99.90;;;;;;5012490;28;20463;-67
2023/10/11 01:01:39;;;;;;;13.70;8.13;;;13.70;99.90;;;;;;5008875;28;20450;-67
2023/10/11 01:04:06;;;;;;;10.43;7.90;;;13.70;99.90;;;;;;5013137;28;21018;-67
2023/10/11 01:06:34;;;;;;;13.20;7.00;;;13.70;99.90;;;;;;5012780;28;20186;-69
2023/10/11 01:09:00;;;;;;;12.53;7.60;;;13.70;99.90;;;;;;5012738;28;20855;-66
2023/10/11 01:11:26;;;;;;;9.20;6.50;;;13.70;99.90;;;;;;5007321;28;20816;-69
2023/10/11 01:13:52;;;;;;;10.63;6.93;;;13.70;99.90;;;;;;5013011;28;20437;-67
2023/10/11 01:16:20;;;;;;;10.03;6.97;;;13.60;99.90;;;;;;5008858;28;20454;-69
2023/10/11 01:18:46;;;;;;;8.73;6.50;;;13.50;99.90;;;;;;5013033;28;20206;-68
2023/10/11 01:21:14;;;;;;;11.80;7.50;;;13.50;99.90;;;;;;5011573;28;20453;-69
2023/10/11 01:23:40;;;;;;;10.10;6.90;;;13.50;99.90;;;;;;5010336;28;20179;-68
2023/10/11 01:26:07;;;;;;;12.80;8.40;;;13.50;99.90;;;;;;5012471;28;20955;-69
2023/10/11 01:28:41;;;;;;;8.47;6.90;;;13.50;99.90;;;;;;5011871;28;20183;-68
2023/10/11 01:31:10;;;;;;;9.03;6.87;;;13.50;99.90;;;;;;5005907;28;20450;-68
2023/10/11 01:33:41;;;;;;;11.67;7.60;;;13.40;99.90;;;;;;5010490;28;20429;-68
2023/10/11 01:36:09;;;;;;;11.10;7.30;;;13.50;99.90;;;;;;5008707;28;20532;-69
2023/10/11 01:38:49;;;;;;;12.70;8.00;;;13.50;99.90;;;;;;5011680;28;20457;-69
2023/10/11 01:41:19;;;;;;;12.10;7.23;;;13.50;99.90;;;;;;5006901;28;20457;-68
2023/10/11 01:43:49;;;;;;;13.53;7.20;;;13.50;99.90;;;;;;5008618;28;20437;-68
2023/10/11 01:46:16;;;;;;;9.27;7.50;;;13.50;99.90;;;;;;5011905;28;20433;-68
2023/10/11 01:48:45;;;;;;;12.53;7.73;;;13.50;99.90;;;;;;5011383;28;20438;-68
2023/10/11 01:51:21;;;;;;;14.93;7.63;;;13.50;99.90;;;;;;5010018;28;20453;-68
2023/10/11 01:53:48;;;;;;;7.83;7.03;;;13.50;99.90;;;;;;5009421;28;20440;-69
2023/10/11 01:56:14;;;;;;;13.57;8.57;;;13.50;99.90;;;;;;5011833;28;20438;-68
2023/10/11 01:58:42;;;;;;;10.83;7.17;;;13.50;99.90;;;;;;5012080;28;20242;-68
2023/10/11 02:01:21;;;;;;;13.37;8.17;;;13.50;99.90;;;;;;5007313;28;20197;-68
2023/10/11 02:03:51;;;;;;;14.10;7.70;;;13.50;99.90;;;;;;5009943;28;20450;-69
2023/10/11 02:06:17;;;;;;;13.93;7.80;;;13.50;99.90;;;;;;5011824;28;20461;-69
2023/10/11 02:08:43;;;;;;;13.73;8.50;;;13.50;99.90;;;;;;5005922;28;20441;-68
2023/10/11 02:11:09;;;;;;;12.07;7.40;;;13.50;99.90;;;;;;5011482;28;20476;-68
2023/10/11 02:13:39;;;;;;;12.33;7.23;;;13.50;99.90;;;;;;5010677;28;20179;-68
2023/10/11 02:16:09;;;;;;;17.07;9.10;;;13.50;99.90;;;;;;5011598;28;20525;-69
2023/10/11 02:18:35;;;;;;;12.63;8.43;;;13.50;99.90;;;;;;5010776;28;20521;-69
2023/10/11 02:21:06;;;;;;;11.17;8.43;;;13.50;99.90;;;;;;5011301;28;20986;-68
2023/10/11 02:23:37;;;;;;;12.37;8.13;;;13.50;99.90;;;;;;5009966;28;20182;-68
2023/10/11 02:26:04;;;;;;;15.63;8.10;;;13.50;99.90;;;;;;5011554;28;20886;-69
2023/10/11 02:28:30;;;;;;;12.30;6.87;;;13.50;99.90;;;;;;5011824;28;20496;-68
2023/10/11 02:30:56;;;;;;;11.57;7.33;;;13.50;99.90;;;;;;5009588;28;20465;-69
2023/10/11 02:33:22;;;;;;;12.53;7.40;;;13.50;99.90;;;;;;5009331;28;20171;-68
2023/10/11 02:35:56;;;;;;;9.87;7.70;;;13.50;99.90;;;;;;5008787;28;20556;-68
2023/10/11 02:38:23;;;;;;;8.80;7.80;;;13.40;99.90;;;;;;5014976;28;20460;-69
2023/10/11 02:40:55;;;;;;;9.47;8.03;;;13.40;99.90;;;;;;5008990;28;20488;-69
2023/10/11 02:43:28;;;;;;;11.83;7.10;;;13.40;99.90;;;;;;5009157;28;20433;-68
2023/10/11 02:45:54;;;;;;;14.33;8.10;;;13.30;99.90;;;;;;5008863;28;20516;-67
2023/10/11 02:48:20;;;;;;;13.33;7.40;;;13.20;99.90;;;;;;5010387;28;20517;-68
2023/10/11 02:50:47;;;;;;;13.00;8.97;;;13.20;99.90;;;;;;5011339;28;20198;-68
2023/10/11 02:53:21;;;;;;;13.10;7.80;;;13.20;99.90;;;;;;5008858;28;20452;-69
2023/10/11 02:55:57;;;;;;;11.73;7.47;;;13.20;99.90;;;;;;5007302;28;20441;-68
2023/10/11 02:58:29;;;;;;;15.83;8.37;;;13.20;99.90;;;;;;5009575;28;20541;-69
2023/10/11 03:00:58;;;;;;;15.13;7.17;;;13.20;99.90;;;;;;5009519;28;20537;-68
2023/10/11 03:03:26;;;;;;;16.50;8.93;;;13.20;99.90;;;;;;5007754;28;20446;-69
2023/10/11 03:05:52;;;;;;;15.43;7.47;;;13.30;99.90;;;;;;5001757;28;20457;-68
2023/10/11 03:08:19;;;;;;;17.53;8.57;;;13.30;99.90;;;;;;5010664;28;20512;-69
2023/10/11 03:10:58;;;;;;;10.60;6.97;;;13.30;99.90;;;;;;5010047;28;20473;-68
2023/10/11 03:13:29;;;;;;;9.37;7.03;;;13.30;99.90;;;;;;5009168;28;20524;-68
2023/10/11 03:15:55;;;;;;;9.67;8.53;;;13.30;99.90;;;;;;5010133;28;20434;-68
2023/10/11 03:18:25;;;;;;;10.43;6.83;;;13.30;99.90;;;;;;5009955;28;20811;-69
2023/10/11 03:21:09;;;;;;;12.20;7.93;;;13.20;99.90;;;;;;5010016;28;20532;-69
2023/10/11 03:23:45;;;;;;;10.37;6.90;;;13.20;99.90;;;;;;5009992;28;20845;-68
2023/10/11 03:26:22;;;;;;;11.53;7.10;;;13.20;99.90;;;;;;5009585;28;20951;-68
2023/10/11 03:28:58;;;;;;;11.87;7.57;;;13.20;99.90;;;;;;5010441;28;20449;-68
2023/10/11 03:31:28;;;;;;;10.77;6.60;;;13.20;99.90;;;;;;5010773;28;20493;-69
2023/10/11 03:33:57;;;;;;;16.10;7.07;;;13.20;99.90;;;;;;5008593;28;20955;-68
2023/10/11 03:36:43;;;;;;;8.73;6.77;;;13.20;99.90;;;;;;5009438;28;20437;-69
2023/10/11 03:39:09;;;;;;;10.90;8.13;;;13.20;99.90;;;;;;5007913;28;20832;-69
2023/10/11 03:41:45;;;;;;;18.50;7.90;;;13.20;99.90;;;;;;5007823;28;20489;-69
2023/10/11 03:44:21;;;;;;;11.20;8.50;;;13.20;99.90;;;;;;5008665;28;20430;-67
2023/10/11 03:46:56;;;;;;;15.60;7.37;;;13.20;99.90;;;;;;5009635;28;20428;-68
2023/10/11 03:51:50;;;;;;;14.20;8.80;;;13.10;99.90;;;;;;5008693;28;20465;-69
2023/10/11 03:54:22;;;;;;;13.70;9.03;;;13.00;99.90;;;;;;5006977;28;20445;-69
2023/10/11 03:56:55;;;;;;;11.37;8.03;;;13.00;99.90;;;;;;5007677;28;20195;-68
2023/10/11 03:59:28;;;;;;;9.47;8.03;;;13.00;99.90;;;;;;5010532;28;20465;-68
2023/10/11 04:01:54;;;;;;;11.10;8.77;;;13.00;99.90;;;;;;5006305;28;20454;-69
2023/10/11 04:04:21;;;;;;;15.83;8.33;;;13.00;99.90;;;;;;5010330;28;20434;-69
2023/10/11 04:07:04;;;;;;;15.10;8.13;;;13.00;99.90;;;;;;5005782;28;20433;-68
2023/10/11 04:09:34;;;;;;;17.70;10.27;;;13.00;99.90;;;;;;5008951;28;20465;-69
2023/10/11 04:12:00;;;;;;;18.47;11.70;;;13.00;99.90;;;;;;5008603;28;20477;-69
2023/10/11 04:14:44;;;;;;;11.20;8.83;;;12.90;99.90;;;;;;5009814;28;20483;-69
2023/10/11 04:17:30;;;;;;;10.87;8.87;;;12.90;99.90;;;;;;5004273;28;20442;-69
2023/10/11 04:20:17;;;;;;;19.20;10.77;;;12.90;99.90;;;;;;5006160;28;20457;-69
2023/10/11 04:23:01;;;;;;;14.37;8.07;;;12.90;99.90;;;;;;5009300;28;20935;-69
2023/10/11 04:25:26;;;;;;;10.07;8.57;;;12.90;99.90;;;;;;5007923;28;20466;-67
2023/10/11 04:27:56;;;;;;;11.43;8.93;;;12.80;99.90;;;;;;5003553;28;20445;-69
2023/10/11 04:30:32;;;;;;;11.23;8.73;;;12.80;99.90;;;;;;5006849;28;20190;-68
2023/10/11 04:33:01;;;;;;;12.47;7.67;;;12.80;99.90;;;;;;5013342;28;20445;-69
2023/10/11 04:35:36;;;;;;;14.03;7.93;;;12.80;99.90;;;;;;5007257;28;20485;-69
2023/10/11 04:38:03;;;;;;;14.30;8.37;;;12.70;99.90;;;;;;5009611;28;20433;-69
2023/10/11 04:40:40;;;;;;;11.50;8.43;;;12.70;99.90;;;;;;5013583;28;20483;-68
2023/10/11 04:43:11;;;;;;;15.17;7.73;;;12.70;99.90;;;;;;5014236;28;20429;-69
2023/10/11 04:45:44;;;;;;;12.77;8.80;;;12.60;99.90;;;;;;5012898;28;20430;-67
2023/10/11 04:48:30;;;;;;;10.20;8.20;;;12.60;99.90;;;;;;5009841;28;20488;-68
2023/10/11 04:59:11;;;;;;;16.20;8.23;;;12.50;99.90;;;;;;5010565;28;20607;-69
2023/10/11 05:01:58;;;;;;;12.40;8.53;;;12.50;99.90;;;;;;5005553;28;20465;-69
2023/10/11 05:04:30;;;;;;;14.63;7.63;;;12.40;99.90;;;;;;5012328;28;20437;-70
2023/10/11 05:06:56;;;;;;;13.20;9.47;;;12.40;99.90;;;;;;5009288;28;20466;-69
2023/10/11 05:09:29;;;;;;;11.03;8.40;;;12.40;99.90;;;;;;5008407;28;20966;-69
2023/10/11 05:14:39;;;;;;;13.43;7.73;;;12.30;99.90;;;;;;5011561;28;20816;-68
2023/10/11 05:19:45;;;;;;;11.17;8.27;;;12.30;99.90;;;;;;5002346;28;20461;-69
2023/10/11 05:22:29;;;;;;;13.97;7.67;;;12.20;99.90;;;;;;5007242;28;20454;-68
2023/10/11 05:28:07;;;;;;;13.17;8.83;;;12.20;99.90;;;;;;5008027;28;20434;-68
2023/10/11 05:30:28;;;;;;;15.40;7.53;;;12.10;99.90;;;;;;4998720;28;20513;-68
2023/10/11 05:33:30;;;;;;;12.13;7.27;;;12.10;99.90;;;;;;5010420;28;20444;-68
2023/10/11 05:52:43;;;;;;;14.23;8.90;;;12.20;99.90;;;;;;4977768;28;20511;-67
2023/10/11 05:55:08;;;;;;;16.20;8.13;;;12.20;99.90;;;;;;5013588;28;20902;-68
2023/10/11 05:57:34;;;;;;;15.30;8.70;;;12.30;99.90;;;;;;5013639;28;20254;-68
2023/10/11 06:00:08;;;;;;;17.47;10.50;;;12.30;99.90;;;;;;5013823;28;20256;-68
2023/10/11 06:02:33;;;;;;;17.50;9.87;;;12.30;99.90;;;;;;5013546;28;20672;-68
2023/10/11 06:04:59;;;;;;;16.57;9.07;;;12.40;99.90;;;;;;5013518;28;20433;-68
2023/10/11 06:07:24;;;;;;;11.50;8.20;;;12.50;99.90;;;;;;5010642;28;20185;-67
2023/10/11 06:09:53;;;;;;;14.17;8.47;;;12.50;99.90;;;;;;5013383;28;20194;-67
2023/10/11 06:12:29;;;;;;;10.73;7.30;;;12.60;99.90;;;;;;5009670;28;20210;-67
2023/10/11 06:14:56;;;;;;;11.83;7.37;;;12.80;99.90;;;;;;5003890;28;20433;-69
2023/10/11 06:20:26;;;;;;;12.27;8.10;;;13.20;99.90;;;;;;4979964;28;20866;-67
2023/10/11 06:22:52;;;;;;;14.20;8.57;;;13.40;99.90;;;;;;5012949;28;20479;-68
2023/10/11 06:28:15;;;;;;;15.53;8.10;;;13.90;99.90;;;;;;5013148;28;20452;-67
2023/10/11 06:30:42;;;;;;;13.80;7.73;;;14.10;99.90;;;;;;5013031;28;20460;-67
2023/10/11 06:33:12;;;;;;;14.93;7.80;;;14.40;99.90;;;;;;5013173;28;20426;-67
2023/10/11 06:35:43;;;;;;;12.80;8.57;;;14.70;99.90;;;;;;5013024;28;20418;-67
2023/10/11 06:38:13;;;;;;;12.63;9.20;;;14.90;99.90;;;;;;5012915;28;20418;-68
2023/10/11 06:40:49;;;;;;;14.10;8.60;;;15.20;99.90;;;;;;5012647;28;20548;-68
2023/10/11 06:43:15;;;;;;;11.03;9.03;;;15.50;99.90;;;;;;5012618;28;20417;-68
2023/10/11 06:45:41;;;;;;;14.70;8.13;;;15.70;99.90;;;;;;5012862;28;20955;-68
2023/10/11 06:48:13;;;;;;;12.33;8.10;;;16.00;99.90;;;;;;5012858;28;20426;-68
2023/10/11 06:50:39;;;;;;;17.03;8.50;;;16.30;99.90;;;;;;5012856;28;20470;-68
2023/10/11 06:53:09;;;;;;;15.23;8.37;;;16.50;99.90;;;;;;5011537;28;20440;-68
2023/10/11 06:55:36;;;;;;;10.80;8.20;;;16.80;99.90;;;;;;5010143;28;20426;-68
2023/10/11 06:58:09;;;;;;;13.80;8.37;;;17.00;99.90;;;;;;5011478;28;20418;-68
2023/10/11 07:00:39;;;;;;;22.13;8.90;;;17.30;99.90;;;;;;5012353;28;20438;-68
2023/10/11 07:03:26;;;;;;;11.33;7.10;;;17.60;99.90;;;;;;5012241;28;20425;-68
2023/10/11 07:06:09;;;;;;;37.47;10.27;;;17.90;99.90;;;;;;5012496;28;20425;-68
2023/10/11 07:08:35;;;;;;;14.53;7.90;;;18.10;99.90;;;;;;5012414;28;20497;-68
2023/10/11 07:16:13;;;;;;;10.20;7.27;;;19.00;99.90;;;;;;5008913;28;20444;-68
2023/10/11 07:18:43;;;;;;;11.83;6.50;;;19.40;99.90;;;;;;5012280;28;20477;-68
2023/10/11 07:21:09;;;;;;;9.63;6.80;;;19.70;99.90;;;;;;5011864;28;20210;-68
2023/10/11 07:29:01;;;;;;;14.33;7.70;;;20.90;99.90;;;;;;5012274;28;20947;-68
2023/10/11 07:31:32;;;;;;;11.70;7.50;;;21.20;99.90;;;;;;5012171;28;20460;-68
2023/10/11 07:33:59;;;;;;;11.57;8.80;;;21.50;99.90;;;;;;5012078;28;20417;-68
2023/10/11 07:36:25;;;;;;;13.10;8.03;;;21.80;99.90;;;;;;5011215;28;20461;-68
2023/10/11 07:38:54;;;;;;;17.87;8.03;;;22.00;99.90;;;;;;5012010;28;20462;-68
2023/10/11 07:41:27;;;;;;;17.67;7.60;;;22.20;99.90;;;;;;5012042;28;20508;-68
2023/10/11 07:43:55;;;;;;;20.47;7.30;;;22.50;99.90;;;;;;5011788;28;20413;-68
2023/10/11 07:46:22;;;;;;;12.90;5.93;;;22.80;98.40;;;;;;5012104;28;20418;-68
2023/10/11 07:48:47;;;;;;;14.40;7.10;;;23.10;95.30;;;;;;5012333;28;20767;-68
2023/10/11 07:51:13;;;;;;;12.90;6.90;;;23.50;95.30;;;;;;5011898;28;20441;-68
2023/10/11 07:53:41;;;;;;;19.80;8.03;;;24.00;93.00;;;;;;5010842;28;20432;-68
2023/10/11 07:56:07;;;;;;;16.80;7.60;;;24.40;92.00;;;;;;5011918;28;20179;-68
2023/10/11 07:58:33;;;;;;;12.60;7.90;;;24.70;89.60;;;;;;5011899;28;20464;-68
2023/10/11 08:01:05;;;;;;;13.40;6.90;;;25.10;89.10;;;;;;5012051;28;20438;-68
2023/10/11 08:03:34;;;;;;;11.03;7.47;;;25.50;86.00;;;;;;5013029;28;20163;-69
2023/10/11 08:06:05;;;;;;;15.50;7.10;;;25.90;84.60;;;;;;5015875;28;21019;-68
2023/10/11 08:08:31;;;;;;;9.17;5.43;;;26.30;76.80;;;;;;5015804;28;20524;-68
2023/10/11 08:10:58;;;;;;;11.70;6.20;;;26.00;68.40;;;;;;5010656;28;20501;-68
2023/10/11 08:13:24;;;;;;;11.03;5.50;;;26.40;67.40;;;;;;5013291;28;20552;-69
2023/10/11 08:15:58;;;;;;;6.80;4.77;;;26.10;60.80;;;;;;5015627;28;20508;-69
2023/10/11 08:18:24;;;;;;;15.70;6.60;;;26.30;59.60;;;;;;5015629;28;20171;-69
2023/10/11 08:20:50;;;;;;;10.60;5.13;;;26.80;58.70;;;;;;5015442;28;20444;-69
2023/10/11 08:23:28;;;;;;;11.63;5.30;;;27.20;55.10;;;;;;5015125;28;20456;-67
2023/10/11 08:25:54;;;;;;;11.27;5.27;;;27.60;54.70;;;;;;5013517;28;20433;-67
2023/10/11 08:28:28;;;;;;;10.90;4.97;;;27.60;51.80;;;;;;5015255;28;20428;-67
2023/10/11 08:30:57;;;;;;;10.07;5.00;;;27.50;50.50;;;;;;5014120;28;20473;-67
2023/10/11 08:33:23;;;;;;;7.40;5.00;;;27.40;50.00;;;;;;5013785;28;20418;-67
2023/10/11 08:35:53;;;;;;;9.37;4.70;;;27.90;48.70;;;;;;5015159;28;20445;-67
2023/10/11 08:38:19;;;;;;;9.10;5.73;;;27.60;48.00;;;;;;5015143;28;20424;-67
2023/10/11 08:40:49;;;;;;;7.83;6.10;;;28.70;47.50;;;;;;5015120;28;20878;-67
2023/10/11 08:43:15;;;;;;;14.13;4.63;;;29.30;47.30;;;;;;5010262;28;20521;-67
2023/10/11 08:45:59;;;;;;;11.80;4.80;;;30.20;43.30;;;;;;5013957;28;20947;-67
2023/10/11 08:48:25;;;;;;;9.00;4.93;;;31.10;42.10;;;;;;5014846;28;20425;-67
2023/10/11 08:50:55;;;;;;;9.97;4.93;;;31.60;39.90;;;;;;5013145;28;20527;-67
2023/10/11 08:53:22;;;;;;;8.23;5.10;;;32.00;38.30;;;;;;5012572;28;20213;-67
2023/10/11 08:55:55;;;;;;;8.47;5.40;;;31.20;37.00;;;;;;5013828;28;20438;-67
2023/10/11 08:58:25;;;;;;;9.80;6.17;;;30.70;37.80;;;;;;5014687;28;20421;-67
2023/10/11 09:00:52;;;;;;;8.83;5.87;;;31.20;37.30;;;;;;5015174;28;20525;-69
2023/10/11 09:03:19;;;;;;;10.63;5.50;;;31.00;36.90;;;;;;5014440;28;20418;-67
2023/10/11 09:05:47;;;;;;;7.33;5.10;;;30.90;37.00;;;;;;5014607;28;20468;-69
2023/10/11 09:08:21;;;;;;;10.33;5.37;;;30.60;36.80;;;;;;5013872;28;20437;-68
2023/10/11 09:10:51;;;;;;;10.33;5.20;;;30.10;37.10;;;;;;5007288;28;20457;-68
2023/10/11 09:13:26;;;;;;;12.40;5.80;;;30.40;36.90;;;;;;5014043;28;20501;-68
2023/10/11 09:15:54;;;;;;;7.47;5.93;;;30.80;36.80;;;;;;5013318;28;20993;-69
2023/10/11 09:18:21;;;;;;;8.17;5.07;;;31.00;36.80;;;;;;5014358;28;20417;-67
2023/10/11 09:21:08;;;;;;;9.20;5.43;;;30.90;36.10;;;;;;5014247;28;20957;-69
2023/10/11 09:23:38;;;;;;;13.10;6.13;;;31.50;35.80;;;;;;5014143;28;20475;-68
2023/10/11 09:26:05;;;;;;;8.63;5.70;;;31.20;35.80;;;;;;5006537;28;20441;-69
2023/10/11 09:28:33;;;;;;;6.70;4.93;;;31.10;36.10;;;;;;5014120;28;20430;-68
2023/10/11 09:31:15;;;;;;;9.33;5.20;;;31.10;35.90;;;;;;5014168;28;21068;-68
2023/10/11 09:33:45;;;;;;;7.60;4.77;;;31.00;35.80;;;;;;5013907;28;20426;-68
2023/10/11 09:36:12;;;;;;;10.10;5.83;;;31.50;35.90;;;;;;5014112;28;20414;-68
2023/10/11 09:38:41;;;;;;;13.93;6.07;;;31.70;35.40;;;;;;5013991;28;20454;-69
2023/10/11 09:41:08;;;;;;;14.10;5.37;;;33.40;34.70;;;;;;5011132;28;20464;-69
2023/10/11 09:43:43;;;;;;;6.90;5.17;;;34.00;32.50;;;;;;5012799;28;20517;-69
2023/10/11 09:46:11;;;;;;;9.70;5.90;;;35.60;31.40;;;;;;5014780;28;20806;-67
2023/10/11 09:48:42;;;;;;;8.23;6.00;;;36.20;29.70;;;;;;5014227;28;20955;-67
2023/10/11 09:51:14;;;;;;;15.00;6.27;;;36.40;29.30;;;;;;5014111;28;20441;-67
2023/10/11 09:53:42;;;;;;;9.57;5.90;;;37.20;28.70;;;;;;5014054;28;20501;-67
2023/10/11 09:56:34;;;;;;;11.00;5.40;;;35.60;28.80;;;;;;5013964;28;20425;-66
2023/10/11 09:59:39;;;;;;;7.50;5.60;;;34.60;29.40;;;;;;5007101;28;20457;-66
2023/10/11 10:02:19;;;;;;;9.50;5.87;;;35.30;29.00;;;;;;5009752;28;20446;-67
2023/10/11 10:04:54;;;;;;;10.37;5.67;;;35.40;29.30;;;;;;5012671;28;20786;-67
2023/10/11 10:07:42;;;;;;;11.43;5.13;;;36.10;28.30;;;;;;5014340;28;20785;-67
2023/10/11 10:10:11;;;;;;;7.87;5.63;;;35.50;28.70;;;;;;5012299;28;20957;-67
2023/10/11 10:12:57;;;;;;;7.30;5.47;;;35.80;28.70;;;;;;5012063;28;20547;-67
2023/10/11 10:15:28;;;;;;;6.97;4.77;;;35.20;28.80;;;;;;5012462;28;20429;-67
2023/10/11 10:17:57;;;;;;;11.67;5.40;;;36.30;28.40;;;;;;5013283;28;20456;-67
2023/10/11 10:20:43;;;;;;;10.93;5.83;;;36.70;28.00;;;;;;5013074;28;20457;-67
2023/10/11 10:23:15;;;;;;;11.13;6.13;;;37.90;27.50;;;;;;5013029;28;20949;-67
2023/10/11 10:26:03;;;;;;;10.10;5.63;;;37.80;27.00;;;;;;5013221;28;20927;-67
2023/10/11 10:28:39;;;;;;;8.03;5.10;;;37.30;26.90;;;;;;5013545;28;20895;-67
2023/10/11 10:31:19;;;;;;;15.10;5.73;;;37.30;27.20;;;;;;5009388;28;20828;-67
2023/10/11 10:33:50;;;;;;;12.70;6.17;;;37.60;27.10;;;;;;5010577;28;20461;-67
2023/10/11 10:36:21;;;;;;;10.47;5.53;;;39.90;26.60;;;;;;5012936;28;20472;-67
2023/10/11 10:41:36;;;;;;;7.83;5.57;;;39.30;25.90;;;;;;5012952;28;20433;-67
2023/10/11 10:44:06;;;;;;;10.80;5.27;;;38.10;26.70;;;;;;5012400;28;20505;-67
2023/10/11 10:46:32;;;;;;;7.20;5.17;;;37.70;26.60;;;;;;5008750;28;20494;-67
2023/10/11 10:48:58;;;;;;;9.60;5.30;;;38.10;26.80;;;;;;5012606;28;20434;-67
2023/10/11 10:51:27;;;;;;;11.53;5.13;;;38.20;26.30;;;;;;5012624;28;20448;-67
2023/10/11 10:53:53;;;;;;;11.83;6.10;;;38.00;26.20;;;;;;5012402;28;20799;-67
2023/10/11 10:56:29;;;;;;;16.53;4.90;;;37.40;26.50;;;;;;5012565;28;20418;-67
2023/10/11 10:59:12;;;;;;;10.40;6.43;;;38.00;26.50;;;;;;5012470;28;20206;-67
2023/10/11 11:01:38;;;;;;;10.27;5.40;;;39.50;25.60;;;;;;5011507;28;20464;-67
2023/10/11 11:04:07;;;;;;;8.73;5.10;;;39.40;25.90;;;;;;5011287;28;20437;-67
2023/10/11 11:06:48;;;;;;;9.17;5.57;;;40.10;25.40;;;;;;5012378;28;20724;-67
2023/10/11 11:09:19;;;;;;;6.93;5.27;;;39.70;25.00;;;;;;5012745;28;20410;-67
2023/10/11 11:11:46;;;;;;;8.00;5.50;;;39.70;25.00;;;;;;5025713;22;20517;-65
2023/10/11 11:14:15;;;;;;;6.33;5.50;;;40.40;25.10;;;;;;4992051;28;20427;-65
2023/10/11 11:16:44;;;;;;;10.13;5.67;;;39.20;24.80;;;;;;4992737;28;20497;-65
2023/10/11 11:19:17;;;;;;;6.00;5.40;;;39.10;24.90;;;;;;4991479;28;20521;-65
2023/10/11 11:21:46;;;;;;;8.70;4.87;;;38.30;25.30;;;;;;4973182;28;20439;-65
2023/10/11 11:24:18;;;;;;;9.13;4.93;;;38.40;25.50;;;;;;4973007;28;20423;-65
2023/10/11 11:26:44;;;;;;;10.03;6.10;;;38.90;25.30;;;;;;4973179;28;20887;-65
2023/10/11 11:29:14;;;;;;;5.30;4.80;;;38.90;25.10;;;;;;4973251;28;20419;-65
2023/10/11 11:31:53;;;;;;;15.20;5.70;;;38.80;24.60;;;;;;4973007;28;20456;-65
2023/10/11 11:34:34;;;;;;;12.53;5.77;;;36.80;25.70;;;;;;4976029;28;20826;-65
2023/10/11 11:37:10;;;;;;;8.77;4.80;;;37.80;25.50;;;;;;4992462;28;20426;-65
2023/10/11 11:39:39;;;;;;;11.23;6.00;;;38.90;25.20;;;;;;4995592;28;20831;-65
2023/10/11 11:42:19;;;;;;;7.47;5.40;;;39.50;24.60;;;;;;4996364;28;20803;-65
2023/10/11 11:44:46;;;;;;;6.23;5.63;;;40.00;24.50;;;;;;4996269;28;20430;-65
2023/10/11 11:47:13;;;;;;;9.93;5.50;;;39.40;24.60;;;;;;4996593;28;20430;-65
2023/10/11 11:49:38;;;;;;;8.97;6.20;;;39.70;24.80;;;;;;4996521;28;20422;-65
2023/10/11 11:52:04;;;;;;;7.77;5.63;;;40.10;24.10;;;;;;4995276;28;20473;-65
2023/10/11 11:54:30;;;;;;;9.37;5.73;;;38.90;24.40;;;;;;4995994;28;20186;-65
2023/10/11 11:56:56;;;;;;;5.53;4.50;;;38.20;24.90;;;;;;4996528;28;20202;-65
2023/10/11 11:59:28;;;;;;;9.87;5.80;;;37.60;25.40;;;;;;4996277;28;20203;-65
2023/10/11 12:01:56;;;;;;;9.97;5.73;;;38.50;25.10;;;;;;4996483;28;20923;-65
2023/10/11 12:04:29;;;;;;;5.70;5.10;;;39.90;24.40;;;;;;4996026;28;20410;-65
2023/10/11 12:07:01;;;;;;;9.20;5.80;;;41.60;24.90;;;;;;4996144;28;20938;-65
2023/10/11 12:09:34;;;;;;;9.97;6.53;;;43.60;26.00;;;;;;4995012;28;20441;-65
2023/10/11 12:12:07;;;;;;;7.00;4.50;;;45.00;26.90;;;;;;4996150;28;20492;-65
2023/10/11 12:14:37;;;;;;;8.87;5.43;;;45.60;26.60;;;;;;4995799;28;21151;-65
2023/10/11 12:17:09;;;;;;;9.27;5.17;;;43.60;26.20;;;;;;4995941;28;21047;-65
2023/10/11 12:19:40;;;;;;;13.40;6.07;;;44.30;26.50;;;;;;4995819;28;20895;-65
2023/10/11 12:22:06;;;;;;;8.53;4.80;;;43.20;26.10;;;;;;4994877;28;20443;-65
2023/10/11 12:24:32;;;;;;;8.87;5.60;;;43.70;25.60;;;;;;4987275;28;20423;-65
2023/10/11 12:26:58;;;;;;;6.20;5.00;;;43.30;24.20;;;;;;4995753;28;20762;-65
2023/10/11 12:29:24;;;;;;;5.27;4.70;;;42.30;24.10;;;;;;4995807;28;20171;-65
2023/10/11 12:31:49;;;;;;;4.90;4.43;;;41.40;24.30;;;;;;4995654;28;20195;-65
2023/10/11 12:34:16;;;;;;;5.70;4.10;;;41.60;24.70;;;;;;4995306;28;21019;-65
2023/10/11 12:36:42;;;;;;;5.70;4.60;;;42.10;24.10;;;;;;4995553;28;20218;-65
2023/10/11 12:39:21;;;;;;;8.87;4.97;;;42.90;23.60;;;;;;4994474;28;20557;-65
2023/10/11 12:41:51;;;;;;;7.03;4.40;;;43.50;23.70;;;;;;4988280;28;20458;-65
2023/10/11 12:44:18;;;;;;;6.03;4.30;;;42.90;23.20;;;;;;4995197;28;20423;-65
2023/10/11 12:46:44;;;;;;;7.60;5.00;;;42.70;23.70;;;;;;4995276;28;20418;-65
2023/10/11 12:49:13;;;;;;;8.63;4.90;;;42.60;23.80;;;;;;4995281;28;20426;-65
2023/10/11 12:51:42;;;;;;;6.50;5.50;;;42.90;23.50;;;;;;4995253;28;20528;-65
2023/10/11 12:54:10;;;;;;;7.40;6.80;;;45.00;23.30;;;;;;4994937;28;20969;-65
2023/10/11 12:56:36;;;;;;;8.67;4.90;;;45.20;22.00;;;;;;4993132;28;20434;-65
2023/10/11 12:59:02;;;;;;;5.27;4.87;;;44.50;22.40;;;;;;4987384;28;20467;-65
2023/10/11 13:01:39;;;;;;;7.50;5.07;;;44.40;22.40;;;;;;4993509;28;20947;-65
2023/10/11 13:04:08;;;;;;;5.47;4.40;;;44.20;22.50;;;;;;4994872;28;20167;-65
2023/10/11 13:06:37;;;;;;;6.00;5.00;;;43.70;22.70;;;;;;4995049;28;20433;-65
2023/10/11 13:09:04;;;;;;;4.67;4.17;;;42.70;22.40;;;;;;4995101;28;20423;-65
2023/10/11 13:11:33;;;;;;;5.07;4.57;;;41.70;22.60;;;;;;4994723;28;20909;-65
2023/10/11 13:14:05;;;;;;;7.43;5.00;;;41.30;22.80;;;;;;4992869;28;20793;-67
2023/10/11 13:16:32;;;;;;;5.00;4.47;;;41.60;22.90;;;;;;4986146;28;20462;-65
2023/10/11 13:18:59;;;;;;;7.30;4.30;;;42.20;23.30;;;;;;4994748;28;20451;-65
2023/10/11 13:21:28;;;;;;;11.70;6.90;;;41.50;23.00;;;;;;4994798;28;20466;-65
2023/10/11 13:23:53;;;;;;;6.30;5.40;;;41.30;23.10;;;;;;4994989;28;20410;-65
2023/10/11 13:26:20;;;;;;;8.90;4.80;;;41.20;23.00;;;;;;4994623;28;20509;-65
2023/10/11 13:28:53;;;;;;;5.43;4.30;;;41.70;22.90;;;;;;4985784;28;20594;-65
2023/10/11 13:31:18;;;;;;;6.33;4.90;;;40.50;23.10;;;;;;4994582;28;20443;-65
2023/10/11 13:33:44;;;;;;;6.73;5.00;;;40.70;23.60;;;;;;4994292;28;20454;-65
2023/10/11 13:36:12;;;;;;;9.87;5.40;;;40.60;23.30;;;;;;4994533;28;20637;-65
2023/10/11 13:38:41;;;;;;;5.87;5.33;;;39.90;23.40;;;;;;4994346;28;20561;-65
2023/10/11 13:41:12;;;;;;;5.43;4.20;;;37.40;24.10;;;;;;4994357;28;20435;-65
2023/10/11 13:43:40;;;;;;;4.67;4.23;;;35.20;25.70;;;;;;4993138;28;20457;-64
2023/10/11 13:46:07;;;;;;;11.17;5.07;;;33.60;26.90;;;;;;4991985;28;20434;-65
2023/10/11 13:48:42;;;;;;;5.60;4.50;;;32.90;27.30;;;;;;4986043;28;20411;-65
2023/10/11 13:51:16;;;;;;;4.53;4.10;;;32.50;28.00;;;;;;4994108;28;20492;-65
2023/10/11 13:53:42;;;;;;;4.20;3.80;;;31.70;28.60;;;;;;4993977;28;20426;-64